createdAt,value
2024-03-06T00:03:02.146Z,1.00
2024-03-06T00:13:06.903Z,0.60
2024-03-06T00:23:10.360Z,0.90
2024-03-06T00:33:15.562Z,0.70
2024-03-06T00:43:19.205Z,1.03
2024-03-06T00:53:25.495Z,1.00
2024-03-06T01:03:28.875Z,0.90
2024-03-06T01:13:33.504Z,0.80
2024-03-06T01:23:36.719Z,1.00
2024-03-06T01:33:41.291Z,1.37
2024-03-06T01:43:44.478Z,1.30
2024-03-06T01:53:49.715Z,1.00
2024-03-06T02:03:54.168Z,1.03
2024-03-06T02:13:59.223Z,0.90
2024-03-06T02:24:03.793Z,1.27
2024-03-06T02:34:07.694Z,1.50
2024-03-06T02:44:12.373Z,1.50
2024-03-06T02:54:15.926Z,1.47
2024-03-06T03:04:20.952Z,1.40
2024-03-06T03:14:24.117Z,1.20
2024-03-06T03:24:28.637Z,1.40
2024-03-06T03:34:31.841Z,1.60
2024-03-06T03:44:36.466Z,1.43
2024-03-06T03:54:39.665Z,1.50
2024-03-06T04:04:44.225Z,1.70
2024-03-06T04:14:47.548Z,1.90
2024-03-06T04:24:52.423Z,1.77
2024-03-06T04:34:57.190Z,1.80
2024-03-06T04:45:02.922Z,1.77
2024-03-06T04:55:07.205Z,2.10
2024-03-06T06:07:21.369Z,2.67
2024-03-06T06:17:26.079Z,2.70
2024-03-06T06:27:31.055Z,3.00
2024-03-06T06:37:35.240Z,2.50
2024-03-06T06:47:40.723Z,2.43
2024-03-06T06:57:45.080Z,2.60
2024-03-06T07:07:51.870Z,2.80
2024-03-06T07:17:57.189Z,2.83
2024-03-06T07:28:01.966Z,2.93
2024-03-06T07:38:06.221Z,3.20
2024-03-06T07:48:11.079Z,3.07
2024-03-06T07:58:14.317Z,2.73
2024-03-06T08:08:18.944Z,2.50
2024-03-06T08:18:22.292Z,2.30
2024-03-06T08:28:27.004Z,2.63
2024-03-06T08:38:30.227Z,2.90
2024-03-06T08:48:34.957Z,2.83
2024-03-06T08:58:38.217Z,2.57
2024-03-06T09:08:42.786Z,3.40
2024-03-06T09:18:46.108Z,2.90
2024-03-06T09:28:51.455Z,2.53
2024-03-06T09:38:54.870Z,2.50
2024-03-06T09:49:00.043Z,2.50
2024-03-06T09:59:04.870Z,2.47
2024-03-06T10:09:09.698Z,2.40
2024-03-06T10:19:19.608Z,2.90
2024-03-06T10:29:25.408Z,2.63
2024-03-06T10:39:29.241Z,2.47
2024-03-06T10:49:35.707Z,2.97
2024-03-06T10:59:39.105Z,2.40
2024-03-06T11:09:43.905Z,1.60
2024-03-06T11:20:16.086Z,1.97
2024-03-06T11:30:22.641Z,2.00
2024-03-06T11:40:27.263Z,1.90
2024-03-06T11:50:33.057Z,2.20
2024-03-06T12:00:36.515Z,1.73
2024-03-06T12:10:41.475Z,1.70
2024-03-06T12:20:47.058Z,1.97
2024-03-06T12:30:52.384Z,1.57
2024-03-06T12:40:55.540Z,1.80
2024-03-06T12:51:06.068Z,1.30
2024-03-06T13:01:09.935Z,2.27
2024-03-06T13:11:14.576Z,1.80
2024-03-06T13:21:17.858Z,1.10
2024-03-06T13:31:22.471Z,1.20
2024-03-06T13:41:28.601Z,2.00
2024-03-06T13:51:34.618Z,1.50
2024-03-06T14:01:37.861Z,1.03
2024-03-06T14:11:42.828Z,1.30
2024-03-06T14:21:47.812Z,1.50
2024-03-06T14:31:52.794Z,1.00
2024-03-06T14:41:56.014Z,1.20
2024-03-06T14:52:00.656Z,1.20
2024-03-06T15:02:04.906Z,1.40
2024-03-06T15:12:10.473Z,1.07
2024-03-06T15:22:14.261Z,1.50
2024-03-06T15:32:18.848Z,1.40
2024-03-06T15:42:23.582Z,1.50
2024-03-06T15:52:28.287Z,1.70
2024-03-06T16:02:31.465Z,1.53
2024-03-06T16:12:36.176Z,1.73
2024-03-06T16:22:39.629Z,2.03
2024-03-06T16:32:44.301Z,1.90
2024-03-06T16:42:47.521Z,2.33
2024-03-06T16:52:52.045Z,2.20
2024-03-06T17:02:57.078Z,2.23
2024-03-06T17:13:02.310Z,2.03
2024-03-06T17:23:06.176Z,2.63
2024-03-06T17:33:10.877Z,2.37
2024-03-06T17:43:20.238Z,2.20
2024-03-06T17:53:24.821Z,2.00
2024-03-06T18:03:28.054Z,2.17
2024-03-06T18:13:32.633Z,2.73
2024-03-06T18:23:35.915Z,2.60
2024-03-06T18:33:40.477Z,2.60
2024-03-06T18:43:46.393Z,2.77
2024-03-06T18:53:52.213Z,3.23
2024-03-06T19:03:55.403Z,3.60
2024-03-06T19:14:00.308Z,3.33
2024-03-06T19:24:03.475Z,3.20
2024-03-06T19:34:08.536Z,3.20
2024-03-06T19:44:11.792Z,3.10
2024-03-06T19:54:17.232Z,3.50
2024-03-06T20:04:20.383Z,3.50
2024-03-06T20:14:25.534Z,3.50
2024-03-06T20:24:28.790Z,4.40
2024-03-06T20:34:33.884Z,4.40
2024-03-06T20:44:37.177Z,4.63
2024-03-06T20:54:43.000Z,4.73
2024-03-06T21:04:46.196Z,4.20
2024-03-06T21:14:53.502Z,4.07
2024-03-06T21:24:56.859Z,4.00
2024-03-06T21:35:01.643Z,3.80
2024-03-06T21:45:06.099Z,3.87
2024-03-06T21:55:11.020Z,4.40
2024-03-06T22:05:14.675Z,4.20
2024-03-06T22:15:19.494Z,3.57
2024-03-06T22:25:23.445Z,3.07
2024-03-06T22:35:28.019Z,3.20
2024-03-06T22:45:31.292Z,3.20
2024-03-06T22:55:35.927Z,3.50
2024-03-06T23:05:39.638Z,3.37
2024-03-06T23:15:44.476Z,3.60
2024-03-06T23:25:47.679Z,3.77
2024-03-06T23:35:52.541Z,3.90
2024-03-06T23:45:55.914Z,4.50
2024-03-06T23:56:00.482Z,4.10
